Time;durP1;ratioP1;P1;durP2;ratioP2;P2;SDS_P1;SDS_P2;PMS_P1;PMS_P2;Temp;Humidity;BMP_temperature;BMP_pressure;BME280_temperature;BME280_humidity;BME280_pressure;Samples;Min_cycle;Max_cycle;Signal;HPM_P1;HPM_P2
2022/05/13 00:00:56;;;;;;;;;;;;;;;26.00;39.26;99616.38;4450333;32;34191;-67
2022/05/13 00:03:24;;;;;;;;;;;;;;;26.00;39.68;99619.13;4450969;32;32730;-65
2022/05/13 00:05:52;;;;;;;;;;;;;;;25.94;40.09;99611.78;4451225;32;33351;-65
2022/05/13 00:08:20;;;;;;;;;;;;;;;25.93;39.09;99608.19;4453025;32;33841;-65
2022/05/13 00:10:48;;;;;;;;;;;;;;;25.68;39.69;99616.31;4443751;32;34259;-68
2022/05/13 00:13:16;;;;;;;;;;;;;;;25.75;39.23;99621.75;4447610;32;34075;-66
2022/05/13 00:15:44;;;;;;;;;;;;;;;25.62;40.14;99625.38;4450907;32;33395;-67
2022/05/13 00:18:12;;;;;;;;;;;;;;;25.66;38.23;99625.78;4447564;32;33051;-64
2022/05/13 00:20:40;;;;;;;;;;;;;;;25.25;38.67;99627.78;4448936;32;34272;-63
2022/05/13 00:23:08;;;;;;;;;;;;;;;25.62;39.28;99628.13;4442525;32;32922;-67
2022/05/13 00:25:36;;;;;;;;;;;;;;;25.79;39.20;99645.78;4450998;32;33264;-68
2022/05/13 00:28:05;;;;;;;;;;;;;;;25.81;39.00;99640.13;4450006;32;33471;-67
2022/05/13 00:30:34;;;;;;;;;;;;;;;25.90;38.29;99643.44;4447607;32;35398;-65
2022/05/13 00:33:02;;;;;;;;;;;;;;;25.93;38.08;99634.78;4443410;32;32610;-67
2022/05/13 00:35:30;;;;;;;;;;;;;;;25.91;37.82;99636.91;4447540;32;32287;-66
2022/05/13 00:37:57;;;;;;;;;;;;;;;26.03;37.63;99637.91;4446014;32;34007;-65
2022/05/13 00:40:28;;;;;;;;;;;;;;;26.04;37.84;99636.84;4440966;32;34382;-66
2022/05/13 00:43:03;;;;;;;;;;;;;;;26.12;37.52;99625.63;4445000;32;33870;-65
2022/05/13 00:45:33;;;;;;;;;;;;;;;26.13;37.33;99646.53;4441891;32;32721;-65
2022/05/13 00:48:02;;;;;;;;;;;;;;;26.14;37.45;99641.88;4443586;32;32867;-67
2022/05/13 00:50:34;;;;;;;;;;;;;;;26.19;37.24;99640.13;4447683;32;33348;-67
2022/05/13 00:53:03;;;;;;;;;;;;;;;26.15;37.51;99641.63;4450576;32;33690;-64
2022/05/13 00:55:36;;;;;;;;;;;;;;;26.08;38.23;99629.88;4448324;32;33358;-67
2022/05/13 00:58:06;;;;;;;;;;;;;;;26.00;38.15;99639.19;4448373;32;33154;-67
2022/05/13 01:00:36;;;;;;;;;;;;;;;26.01;38.58;99635.37;4436446;32;33492;-65
2022/05/13 01:03:06;;;;;;;;;;;;;;;25.61;38.13;99637.38;4449818;32;33215;-67
2022/05/13 01:05:36;;;;;;;;;;;;;;;25.91;38.10;99634.19;4449870;32;32448;-69
2022/05/13 01:08:07;;;;;;;;;;;;;;;26.08;37.58;99626.28;4451638;32;33179;-69
2022/05/13 01:10:38;;;;;;;;;;;;;;;25.99;37.37;99629.25;4446019;32;33924;-69
2022/05/13 01:13:09;;;;;;;;;;;;;;;25.16;38.33;99634.53;4448692;32;34818;-67
2022/05/13 01:15:39;;;;;;;;;;;;;;;25.43;37.61;99629.84;4447459;32;34722;-66
2022/05/13 01:18:08;;;;;;;;;;;;;;;25.51;37.45;99615.06;4448963;32;34024;-67
2022/05/13 01:20:46;;;;;;;;;;;;;;;25.17;38.04;99617.06;4450281;32;34110;-68
2022/05/13 01:23:19;;;;;;;;;;;;;;;24.85;38.83;99613.25;4451882;32;34072;-66
2022/05/13 01:26:01;;;;;;;;;;;;;;;24.70;39.35;99620.81;4450655;32;33512;-68
2022/05/13 01:28:33;;;;;;;;;;;;;;;24.90;38.92;99612.59;4449991;32;34238;-67
2022/05/13 01:31:10;;;;;;;;;;;;;;;25.59;37.67;99612.13;4443584;32;33438;-66
2022/05/13 01:33:39;;;;;;;;;;;;;;;25.56;37.81;99615.28;4449934;32;36367;-67
2022/05/13 01:36:09;;;;;;;;;;;;;;;25.82;37.28;99613.53;4444677;32;33562;-67
2022/05/13 01:38:38;;;;;;;;;;;;;;;25.96;36.85;99616.00;4450450;32;34004;-66
2022/05/13 01:41:07;;;;;;;;;;;;;;;25.95;36.73;99624.44;4448417;32;32778;-68
2022/05/13 01:43:36;;;;;;;;;;;;;;;26.02;36.82;99619.75;4449701;32;33074;-68
2022/05/13 01:46:05;;;;;;;;;;;;;;;26.05;36.85;99615.75;4450847;32;32365;-69
2022/05/13 01:48:34;;;;;;;;;;;;;;;25.78;37.31;99619.44;4447361;32;33956;-67
2022/05/13 01:51:02;;;;;;;;;;;;;;;25.99;37.03;99611.97;4444202;32;34535;-67
2022/05/13 01:53:31;;;;;;;;;;;;;;;25.72;37.10;99611.22;4450107;32;34992;-67
2022/05/13 01:56:00;;;;;;;;;;;;;;;25.76;36.94;99617.94;4449465;32;33245;-66
2022/05/13 01:58:34;;;;;;;;;;;;;;;25.60;37.30;99618.44;4450434;32;34226;-69
2022/05/13 02:01:03;;;;;;;;;;;;;;;25.40;37.89;99610.28;4448849;32;34246;-69
2022/05/13 02:03:44;;;;;;;;;;;;;;;24.76;38.90;99611.78;4449463;32;35478;-68
2022/05/13 02:06:14;;;;;;;;;;;;;;;25.10;38.60;99610.69;4446287;32;33415;-68
2022/05/13 02:08:43;;;;;;;;;;;;;;;25.37;38.08;99608.78;4448668;32;35262;-68
2022/05/13 02:11:12;;;;;;;;;;;;;;;25.21;38.24;99610.09;4448945;32;33168;-67
2022/05/13 02:13:41;;;;;;;;;;;;;;;25.14;38.22;99602.94;4450827;32;33965;-68
2022/05/13 02:16:15;;;;;;;;;;;;;;;25.07;38.54;99613.84;4448298;32;32078;-67
2022/05/13 02:18:51;;;;;;;;;;;;;;;24.91;38.87;99612.41;4447442;32;32890;-67
2022/05/13 02:21:19;;;;;;;;;;;;;;;24.81;39.01;99618.28;4446820;32;33466;-70
2022/05/13 02:23:47;;;;;;;;;;;;;;;24.28;40.37;99620.94;4443287;32;33178;-67
2022/05/13 02:26:16;;;;;;;;;;;;;;;24.52;39.91;99615.94;4446329;32;34274;-69
2022/05/13 02:28:44;;;;;;;;;;;;;;;25.03;38.95;99612.59;4448405;32;34297;-67
2022/05/13 02:31:13;;;;;;;;;;;;;;;24.37;40.44;99608.75;4449992;32;34244;-66
2022/05/13 02:33:41;;;;;;;;;;;;;;;24.20;40.76;99606.59;4448317;32;33081;-67
2022/05/13 02:36:11;;;;;;;;;;;;;;;25.09;39.01;99607.13;4449320;32;33476;-67
2022/05/13 02:38:40;;;;;;;;;;;;;;;24.81;39.81;99606.50;4449820;32;34254;-68
2022/05/13 02:41:11;;;;;;;;;;;;;;;24.36;40.97;99607.03;4447052;32;34605;-69
2022/05/13 02:43:40;;;;;;;;;;;;;;;24.77;40.27;99607.97;4447964;32;34287;-67
2022/05/13 02:46:09;;;;;;;;;;;;;;;24.89;40.16;99603.56;4448499;32;33922;-67
2022/05/13 02:48:37;;;;;;;;;;;;;;;24.86;40.18;99607.56;4448966;32;34007;-67
2022/05/13 02:51:06;;;;;;;;;;;;;;;24.81;40.51;99612.81;4445376;32;35216;-68
2022/05/13 02:53:36;;;;;;;;;;;;;;;25.03;40.02;99609.84;4451357;32;35437;-69
2022/05/13 02:56:06;;;;;;;;;;;;;;;25.05;40.03;99615.97;4451510;32;34842;-68
2022/05/13 02:58:35;;;;;;;;;;;;;;;24.65;41.01;99621.44;4447954;32;34178;-68
2022/05/13 03:01:04;;;;;;;;;;;;;;;25.07;39.93;99624.81;4452088;32;34423;-67
2022/05/13 03:03:40;;;;;;;;;;;;;;;24.99;40.17;99628.59;4449929;32;34298;-67
2022/05/13 03:06:18;;;;;;;;;;;;;;;25.24;39.76;99637.06;4451294;32;34617;-67
2022/05/13 03:08:47;;;;;;;;;;;;;;;24.86;40.65;99632.19;4451024;32;35152;-69
2022/05/13 03:11:16;;;;;;;;;;;;;;;24.24;41.78;99638.81;4451789;32;35217;-68
2022/05/13 03:13:45;;;;;;;;;;;;;;;24.51;41.26;99644.38;4451567;32;35270;-65
2022/05/13 03:16:19;;;;;;;;;;;;;;;24.18;42.02;99648.66;4449522;32;33542;-66
2022/05/13 03:18:48;;;;;;;;;;;;;;;24.42;41.46;99651.06;4442953;32;34207;-66
2022/05/13 03:21:17;;;;;;;;;;;;;;;23.97;42.67;99651.53;4446266;32;34463;-66
2022/05/13 03:23:46;;;;;;;;;;;;;;;23.67;43.58;99651.78;4450819;32;34881;-66
2022/05/13 03:26:15;;;;;;;;;;;;;;;23.97;43.05;99650.69;4451336;32;32076;-67
2022/05/13 03:28:44;;;;;;;;;;;;;;;24.60;41.74;99651.34;4450798;32;33529;-68
2022/05/13 03:31:13;;;;;;;;;;;;;;;24.71;41.22;99655.34;4451114;32;35166;-65
2022/05/13 03:33:42;;;;;;;;;;;;;;;24.62;41.38;99654.69;4449250;32;33792;-65
2022/05/13 03:36:12;;;;;;;;;;;;;;;23.97;42.38;99650.69;4451927;32;34504;-64
2022/05/13 03:38:40;;;;;;;;;;;;;;;23.97;42.42;99654.25;4451098;32;35271;-65
2022/05/13 03:41:09;;;;;;;;;;;;;;;23.71;42.63;99658.53;4449895;32;34284;-65
2022/05/13 03:43:38;;;;;;;;;;;;;;;24.07;42.08;99659.34;4450697;32;33324;-65
2022/05/13 03:46:07;;;;;;;;;;;;;;;23.43;43.46;99652.25;4448587;32;33314;-70
2022/05/13 03:48:36;;;;;;;;;;;;;;;23.73;42.94;99657.53;4448264;32;33994;-69
2022/05/13 03:51:10;;;;;;;;;;;;;;;23.75;42.72;99661.72;4451138;32;34345;-66
2022/05/13 03:53:47;;;;;;;;;;;;;;;23.47;43.55;99667.22;4450536;32;32890;-67
2022/05/13 03:56:15;;;;;;;;;;;;;;;23.42;43.57;99676.00;4451521;32;33361;-67
2022/05/13 03:58:43;;;;;;;;;;;;;;;23.28;44.27;99674.22;4448801;32;34302;-69
2022/05/13 04:01:12;;;;;;;;;;;;;;;23.65;43.53;99675.72;4450450;32;34471;-67
2022/05/13 04:03:41;;;;;;;;;;;;;;;23.79;43.36;99670.34;4449586;32;34347;-67
2022/05/13 04:08:57;;;;;;;;;;;;;;;23.45;44.63;99677.50;4450011;32;32948;-67
2022/05/13 04:11:26;;;;;;;;;;;;;;;23.61;44.64;99684.53;4452406;32;34945;-67
2022/05/13 04:16:43;;;;;;;;;;;;;;;23.01;46.53;99684.91;4441485;32;34245;-68
2022/05/13 04:19:12;;;;;;;;;;;;;;;22.84;47.21;99680.75;4450365;32;33872;-67
2022/05/13 04:21:41;;;;;;;;;;;;;;;22.51;48.60;99677.69;4451892;32;33017;-69
2022/05/13 04:24:10;;;;;;;;;;;;;;;22.18;50.70;99682.75;4445313;32;34293;-71
2022/05/13 04:26:39;;;;;;;;;;;;;;;22.32;51.05;99674.56;4450800;32;34358;-70
2022/05/13 04:29:07;;;;;;;;;;;;;;;22.00;52.40;99685.88;4449634;32;34493;-69
2022/05/13 04:31:37;;;;;;;;;;;;;;;22.42;51.62;99685.16;4448275;32;33217;-69
2022/05/13 04:34:06;;;;;;;;;;;;;;;22.10;52.63;99695.44;4442284;32;34595;-67
2022/05/13 04:36:35;;;;;;;;;;;;;;;21.98;53.09;99696.94;4447448;32;33091;-68
2022/05/13 04:39:04;;;;;;;;;;;;;;;21.63;54.24;99704.84;4451575;32;34111;-68
2022/05/13 04:44:19;;;;;;;;;;;;;;;22.23;52.78;99697.50;4449923;32;33931;-67
2022/05/13 04:46:47;;;;;;;;;;;;;;;22.36;52.23;99690.53;4449101;32;34139;-66
2022/05/13 04:49:16;;;;;;;;;;;;;;;22.27;51.96;99687.06;4447265;32;33369;-65
2022/05/13 04:51:44;;;;;;;;;;;;;;;22.02;53.17;99695.56;4439397;32;35782;-67
2022/05/13 04:54:13;;;;;;;;;;;;;;;21.73;53.83;99690.09;4449023;32;34133;-69
2022/05/13 04:56:41;;;;;;;;;;;;;;;21.98;53.30;99705.13;4450596;32;33318;-66
2022/05/13 04:59:10;;;;;;;;;;;;;;;21.60;54.06;99702.53;4450783;32;32633;-65
2022/05/13 05:01:38;;;;;;;;;;;;;;;22.04;53.33;99706.25;4449022;32;32793;-67
2022/05/13 05:04:07;;;;;;;;;;;;;;;21.87;53.75;99711.91;4445707;32;33011;-66
2022/05/13 05:06:36;;;;;;;;;;;;;;;21.83;54.12;99713.31;4450675;32;33337;-66
2022/05/13 05:09:04;;;;;;;;;;;;;;;21.98;54.41;99718.75;4450404;32;34199;-69
2022/05/13 05:11:32;;;;;;;;;;;;;;;22.08;54.08;99732.94;4448304;32;34277;-69
2022/05/13 05:14:00;;;;;;;;;;;;;;;22.06;54.29;99740.47;4450685;32;33061;-69
2022/05/13 05:16:28;;;;;;;;;;;;;;;22.65;52.55;99744.13;4449157;32;32061;-70
2022/05/13 05:18:59;;;;;;;;;;;;;;;22.38;53.56;99748.44;4449906;32;33937;-70
2022/05/13 05:21:28;;;;;;;;;;;;;;;22.41;53.70;99746.19;4450839;32;34381;-69
2022/05/13 05:23:59;;;;;;;;;;;;;;;22.77;52.72;99748.91;4449732;32;33167;-69
2022/05/13 05:26:38;;;;;;;;;;;;;;;22.86;52.48;99757.81;4449557;32;32318;-70
2022/05/13 05:29:08;;;;;;;;;;;;;;;22.98;52.08;99761.72;4449751;32;32878;-69
2022/05/13 05:31:38;;;;;;;;;;;;;;;22.42;53.48;99761.50;4449440;32;36212;-70
2022/05/13 05:34:07;;;;;;;;;;;;;;;22.96;52.31;99763.81;4450140;32;34528;-69
2022/05/13 05:36:35;;;;;;;;;;;;;;;23.23;51.48;99767.63;4447018;32;33480;-68
2022/05/13 05:39:04;;;;;;;;;;;;;;;23.32;50.36;99762.88;4439326;32;32869;-70
2022/05/13 05:41:35;;;;;;;;;;;;;;;23.93;48.95;99757.69;4448128;32;34670;-69
2022/05/13 05:44:05;;;;;;;;;;;;;;;23.68;49.51;99757.31;4445397;32;33984;-70
2022/05/13 05:46:35;;;;;;;;;;;;;;;24.29;48.57;99762.09;4442768;32;32275;-69
2022/05/13 05:49:05;;;;;;;;;;;;;;;24.07;48.41;99764.06;4451158;32;32737;-70
2022/05/13 05:51:35;;;;;;;;;;;;;;;23.67;49.16;99760.22;4448952;32;33866;-70
2022/05/13 05:59:38;;;;;;;;;;;;;;;24.31;47.37;99749.06;4450101;32;32991;-70
2022/05/13 06:02:07;;;;;;;;;;;;;;;24.16;48.58;99751.09;4449961;32;32760;-69
2022/05/13 06:04:37;;;;;;;;;;;;;;;24.32;47.78;99752.62;4445244;32;33108;-69
2022/05/13 06:07:07;;;;;;;;;;;;;;;23.85;49.12;99751.53;4447105;32;32752;-69
2022/05/13 06:09:36;;;;;;;;;;;;;;;24.03;48.83;99756.50;4450097;32;34100;-70
2022/05/13 06:12:07;;;;;;;;;;;;;;;24.45;47.77;99758.19;4444097;32;34656;-69
2022/05/13 06:14:37;;;;;;;;;;;;;;;24.28;48.73;99757.69;4443736;32;35717;-70
2022/05/13 06:17:09;;;;;;;;;;;;;;;24.29;48.24;99759.34;4444646;32;33379;-70
2022/05/13 06:19:38;;;;;;;;;;;;;;;24.21;48.18;99762.28;4450754;32;34517;-69
2022/05/13 06:22:06;;;;;;;;;;;;;;;24.40;47.83;99766.16;4445835;32;34145;-69
2022/05/13 06:24:34;;;;;;;;;;;;;;;24.72;46.61;99761.88;4448379;32;34869;-68
2022/05/13 06:27:03;;;;;;;;;;;;;;;24.91;45.88;99767.59;4446811;32;34369;-69
2022/05/13 06:29:32;;;;;;;;;;;;;;;25.08;45.60;99764.25;4446784;32;35186;-71
2022/05/13 06:32:00;;;;;;;;;;;;;;;24.64;46.69;99765.63;4449571;32;34060;-71
2022/05/13 06:34:29;;;;;;;;;;;;;;;25.05;45.77;99766.56;4452752;32;34000;-70
2022/05/13 06:37:01;;;;;;;;;;;;;;;25.33;44.82;99771.91;4448109;32;32256;-70
2022/05/13 06:39:42;;;;;;;;;;;;;;;25.28;44.48;99766.22;4391146;32;2036938;-69
2022/05/13 06:42:22;;;;;;;;;;;;;;;25.70;44.21;99764.09;4449880;32;34189;-68
2022/05/13 06:45:01;;;;;;;;;;;;;;;25.35;44.60;99755.25;4450722;32;33139;-69
2022/05/13 06:47:44;;;;;;;;;;;;;;;25.61;43.26;99768.94;4446886;32;32161;-67
2022/05/13 06:50:21;;;;;;;;;;;;;;;25.37;43.39;99773.16;4462487;32;33295;-69
2022/05/13 06:53:01;;;;;;;;;;;;;;;25.65;43.38;99770.22;4458905;32;33686;-68
2022/05/13 06:55:47;;;;;;;;;;;;;;;24.94;45.59;99772.66;4459239;32;33144;-68
2022/05/13 06:58:26;;;;;;;;;;;;;;;25.71;43.76;99787.69;4451421;32;32549;-67
2022/05/13 07:01:08;;;;;;;;;;;;;;;25.54;43.30;99784.53;4452102;32;34197;-68
2022/05/13 07:03:45;;;;;;;;;;;;;;;25.75;43.35;99788.97;4454366;32;33228;-69
2022/05/13 07:06:26;;;;;;;;;;;;;;;25.51;43.50;99791.28;4453403;32;32029;-67
2022/05/13 07:09:03;;;;;;;;;;;;;;;25.31;43.13;99794.03;4451858;32;32961;-69
2022/05/13 07:11:45;;;;;;;;;;;;;;;25.29;43.42;99787.91;4454465;32;32793;-67
2022/05/13 07:14:22;;;;;;;;;;;;;;;24.89;44.36;99788.88;4454004;32;34309;-68
2022/05/13 07:17:07;;;;;;;;;;;;;;;25.08;43.33;99788.06;4453142;32;34756;-67
2022/05/13 07:19:50;;;;;;;;;;;;;;;25.85;42.10;99774.84;4454162;32;32918;-66
2022/05/13 07:22:36;;;;;;;;;;;;;;;25.82;42.27;99783.50;4455064;32;32820;-67
2022/05/13 07:25:13;;;;;;;;;;;;;;;26.05;41.63;99788.53;4454463;32;31906;-67
2022/05/13 07:27:53;;;;;;;;;;;;;;;26.13;42.29;99789.16;4452641;32;32903;-68
2022/05/13 07:30:40;;;;;;;;;;;;;;;26.23;41.77;99783.22;4444825;32;32011;-69
2022/05/13 07:33:14;;;;;;;;;;;;;;;26.20;41.12;99779.00;4452485;32;33103;-67
2022/05/13 07:35:58;;;;;;;;;;;;;;;26.30;40.77;99783.19;4452969;32;33904;-68
2022/05/13 07:41:16;;;;;;;;;;;;;;;26.20;41.78;99780.91;4453246;32;33168;-67
2022/05/13 07:41:45;;;;;;;;;;;;;;;26.30;41.52;99785.94;4454959;32;33559;-68
2022/05/13 07:44:29;;;;;;;;;;;;;;;26.20;41.60;99787.22;4454973;32;33098;-67
2022/05/13 07:47:14;;;;;;;;;;;;;;;26.09;42.42;99785.13;4454807;32;33114;-68
2022/05/13 07:49:54;;;;;;;;;;;;;;;26.27;42.01;99791.84;4451072;32;32882;-69
2022/05/13 07:52:41;;;;;;;;;;;;;;;25.92;42.75;99789.41;4454139;32;33257;-68
2022/05/13 07:55:19;;;;;;;;;;;;;;;26.53;41.34;99800.00;4452921;32;32892;-69
2022/05/13 07:57:59;;;;;;;;;;;;;;;26.34;40.36;99803.63;4449460;32;35250;-67
2022/05/13 08:00:38;;;;;;;;;;;;;;;26.35;39.90;99808.06;4454606;32;33019;-68
2022/05/13 08:03:14;;;;;;;;;;;;;;;26.57;39.13;99806.75;4454702;32;33030;-67
2022/05/13 08:06:03;;;;;;;;;;;;;;;25.94;40.19;99806.47;4453834;32;32881;-67
2022/05/13 08:08:46;;;;;;;;;;;;;;;25.87;40.80;99824.81;4448414;32;33178;-68
2022/05/13 08:11:30;;;;;;;;;;;;;;;25.45;41.70;99814.03;4452877;32;34294;-67
2022/05/13 08:14:19;;;;;;;;;;;;;;;25.63;41.77;99820.81;4451499;32;32983;-68
2022/05/13 08:16:59;;;;;;;;;;;;;;;25.23;42.65;99818.87;4451294;32;33712;-67
2022/05/13 08:19:39;;;;;;;;;;;;;;;25.14;43.60;99822.88;4453843;32;34722;-70
2022/05/13 08:22:18;;;;;;;;;;;;;;;24.71;44.86;99825.84;4453119;32;34290;-69
2022/05/13 08:24:51;;;;;;;;;;;;;;;24.54;44.46;99827.25;4444352;32;33256;-69
2022/05/13 08:27:19;;;;;;;;;;;;;;;24.54;45.29;99816.31;4452247;32;34028;-68
2022/05/13 08:29:53;;;;;;;;;;;;;;;24.38;45.37;99831.16;4448979;32;34403;-67
2022/05/13 08:32:24;;;;;;;;;;;;;;;24.36;45.63;99831.34;4452886;32;35311;-67
2022/05/13 08:34:55;;;;;;;;;;;;;;;24.57;45.16;99827.69;4452353;32;32005;-69
2022/05/13 08:37:47;;;;;;;;;;;;;;;24.36;44.50;99825.87;4448882;32;34130;-68
2022/05/13 08:40:39;;;;;;;;;;;;;;;24.03;45.06;99830.31;4453163;32;34425;-70
2022/05/13 08:43:13;;;;;;;;;;;;;;;24.04;44.71;99827.34;4452644;32;33734;-72
2022/05/13 08:45:52;;;;;;;;;;;;;;;24.52;45.17;99826.59;4446925;32;32192;-69
2022/05/13 08:48:32;;;;;;;;;;;;;;;25.04;44.49;99822.38;4443796;32;34204;-70
2022/05/13 08:51:41;;;;;;;;;;;;;;;25.00;43.57;99829.31;4453062;32;35133;-68
2022/05/13 08:54:19;;;;;;;;;;;;;;;25.41;42.57;99831.97;4422490;32;33067;-68
2022/05/13 08:56:51;;;;;;;;;;;;;;;24.96;42.96;99826.16;4451793;32;33533;-68
2022/05/13 08:59:28;;;;;;;;;;;;;;;25.19;43.23;99824.97;4451813;32;33952;-70
2022/05/13 09:02:06;;;;;;;;;;;;;;;25.48;42.38;99813.62;4449304;32;32481;-68
2022/05/13 09:04:42;;;;;;;;;;;;;;;24.72;44.10;99802.94;4450357;32;34306;-67
2022/05/13 09:07:17;;;;;;;;;;;;;;;25.17;43.33;99806.03;4451954;32;32471;-70
2022/05/13 09:09:51;;;;;;;;;;;;;;;25.20;43.61;99810.22;4450667;32;33042;-69
2022/05/13 09:12:29;;;;;;;;;;;;;;;25.58;42.88;99806.88;4447994;32;33168;-69
2022/05/13 09:15:05;;;;;;;;;;;;;;;25.16;43.06;99811.69;4447265;32;34456;-70
2022/05/13 09:17:42;;;;;;;;;;;;;;;25.69;42.37;99809.00;4452832;32;31928;-68
2022/05/13 09:20:16;;;;;;;;;;;;;;;26.22;40.98;99804.28;4444905;32;33842;-70
2022/05/13 09:22:52;;;;;;;;;;;;;;;26.28;41.10;99808.09;4450265;32;34505;-69
2022/05/13 09:25:38;;;;;;;;;;;;;;;26.09;40.51;99809.81;4442074;32;34341;-70
2022/05/13 09:28:10;;;;;;;;;;;;;;;25.25;42.47;99804.97;4450195;32;33167;-68
2022/05/13 09:30:43;;;;;;;;;;;;;;;25.27;42.78;99805.63;4451805;32;35559;-67
2022/05/13 09:33:24;;;;;;;;;;;;;;;25.38;42.83;99804.97;4441884;32;34566;-68
2022/05/13 09:35:58;;;;;;;;;;;;;;;25.75;42.01;99811.75;4449005;32;33112;-69
2022/05/13 09:38:27;;;;;;;;;;;;;;;25.52;42.99;99820.41;4450459;32;32292;-70
2022/05/13 09:41:08;;;;;;;;;;;;;;;25.30;43.71;99808.78;4450751;32;33213;-67
2022/05/13 09:44:04;;;;;;;;;;;;;;;25.57;43.68;99808.78;4451017;32;34016;-69
2022/05/13 09:46:37;;;;;;;;;;;;;;;25.09;43.66;99814.38;4442339;32;33115;-68
2022/05/13 09:49:26;;;;;;;;;;;;;;;25.26;43.91;99815.69;4452572;32;33685;-68
2022/05/13 09:52:17;;;;;;;;;;;;;;;26.04;42.42;99817.84;4450587;32;33211;-70
2022/05/13 09:54:49;;;;;;;;;;;;;;;25.57;43.94;99822.47;4439754;32;33761;-68
2022/05/13 09:57:31;;;;;;;;;;;;;;;25.70;43.96;99807.94;4450808;32;33132;-69
2022/05/13 10:00:06;;;;;;;;;;;;;;;26.12;43.79;99819.53;4450889;32;33190;-68
2022/05/13 10:02:43;;;;;;;;;;;;;;;26.35;43.14;99811.63;4451567;32;32813;-69
2022/05/13 10:05:16;;;;;;;;;;;;;;;26.43;43.07;99811.41;4445455;32;35855;-69
2022/05/13 10:07:55;;;;;;;;;;;;;;;26.51;43.13;99804.03;4437574;32;35175;-69
2022/05/13 10:16:26;;;;;;;;;;;;;;;26.23;44.10;99797.78;4451772;32;32999;-69
2022/05/13 10:19:10;;;;;;;;;;;;;;;26.59;42.88;99790.91;4445691;32;33515;-69
2022/05/13 10:21:43;;;;;;;;;;;;;;;26.71;43.34;99791.06;4443767;32;33222;-68
2022/05/13 10:24:24;;;;;;;;;;;;;;;26.20;43.25;99789.97;4446176;32;33344;-69
2022/05/13 10:27:01;;;;;;;;;;;;;;;25.94;43.09;99799.09;4445410;32;33500;-69
2022/05/13 10:29:42;;;;;;;;;;;;;;;26.89;41.91;99787.59;4442516;32;33175;-69
2022/05/13 10:32:17;;;;;;;;;;;;;;;26.64;42.49;99790.25;4420656;32;32395;-70
2022/05/13 10:34:48;;;;;;;;;;;;;;;26.57;41.86;99786.69;4447942;32;33772;-69
2022/05/13 10:37:16;;;;;;;;;;;;;;;27.01;40.89;99791.31;4438660;32;33547;-68
2022/05/13 10:39:46;;;;;;;;;;;;;;;27.16;40.65;99782.81;4444038;32;33584;-70
2022/05/13 10:42:21;;;;;;;;;;;;;;;27.01;41.07;99780.34;4444263;32;34653;-69
2022/05/13 10:44:49;;;;;;;;;;;;;;;27.23;40.77;99772.63;4443191;32;33107;-70
2022/05/13 10:47:22;;;;;;;;;;;;;;;27.58;40.99;99781.22;4447530;32;35093;-70
2022/05/13 10:49:50;;;;;;;;;;;;;;;27.38;40.59;99772.25;4438820;32;33573;-69
2022/05/13 10:52:18;;;;;;;;;;;;;;;27.68;39.76;99766.94;4446416;32;34094;-70
2022/05/13 10:54:53;;;;;;;;;;;;;;;27.21;40.25;99769.22;4441735;32;34329;-71
2022/05/13 10:57:27;;;;;;;;;;;;;;;28.04;38.37;99768.09;4433544;32;32944;-69
2022/05/13 11:00:15;;;;;;;;;;;;;;;27.85;38.99;99769.97;4434469;32;32846;-71
2022/05/13 11:02:46;;;;;;;;;;;;;;;28.11;39.23;99771.59;4436130;32;33639;-70
2022/05/13 11:05:32;;;;;;;;;;;;;;;27.52;38.73;99773.84;4448816;32;34992;-71
2022/05/13 11:08:00;;;;;;;;;;;;;;;27.54;38.99;99771.69;4448249;32;32851;-70
2022/05/13 11:10:28;;;;;;;;;;;;;;;27.06;40.01;99774.16;4448215;32;34305;-70
2022/05/13 11:12:59;;;;;;;;;;;;;;;27.37;40.09;99771.44;4447705;32;33421;-71
2022/05/13 11:15:38;;;;;;;;;;;;;;;27.45;40.02;99773.06;4450892;32;35292;-71
2022/05/13 11:18:17;;;;;;;;;;;;;;;27.11;41.01;99771.59;4441385;32;35348;-70
2022/05/13 11:20:53;;;;;;;;;;;;;;;27.86;36.74;99760.66;4437614;32;32970;-69
2022/05/13 11:23:30;;;;;;;;;;;;;;;27.80;36.84;99759.69;4436277;32;33247;-71
2022/05/13 11:26:01;;;;;;;;;;;;;;;27.54;37.69;99757.97;4445874;32;33684;-70
2022/05/13 11:28:31;;;;;;;;;;;;;;;27.50;38.32;99745.75;4439285;32;34362;-68
2022/05/13 11:31:16;;;;;;;;;;;;;;;27.58;38.19;99750.97;4447834;32;33925;-67
2022/05/13 11:34:03;;;;;;;;;;;;;;;27.71;38.00;99750.00;4446280;32;33536;-67
2022/05/13 11:36:35;;;;;;;;;;;;;;;27.83;38.30;99750.97;4447392;32;34128;-70
2022/05/13 11:39:21;;;;;;;;;;;;;;;28.59;35.79;99748.81;4444477;32;35229;-71
2022/05/13 11:41:56;;;;;;;;;;;;;;;27.68;38.05;99747.69;4449248;32;34512;-69
2022/05/13 11:44:42;;;;;;;;;;;;;;;28.20;37.86;99752.91;4446375;32;33401;-70
2022/05/13 11:47:14;;;;;;;;;;;;;;;27.73;38.54;99744.25;4448610;32;36117;-71
2022/05/13 11:49:44;;;;;;;;;;;;;;;27.99;38.62;99737.66;4446383;32;35148;-68
2022/05/13 11:52:12;;;;;;;;;;;;;;;27.74;38.68;99734.97;4441666;32;34247;-70
2022/05/13 11:54:41;;;;;;;;;;;;;;;27.36;39.84;99752.44;4446950;32;33305;-70
2022/05/13 11:57:09;;;;;;;;;;;;;;;27.70;38.29;99744.72;4445210;32;34215;-71
2022/05/13 11:59:46;;;;;;;;;;;;;;;27.52;39.34;99745.53;4450149;32;34117;-70
2022/05/13 12:02:15;;;;;;;;;;;;;;;27.52;39.32;99743.63;4450010;32;32944;-69
2022/05/13 12:05:22;;;;;;;;;;;;;;;26.97;40.48;99748.03;4443932;32;33630;-68
2022/05/13 12:08:08;;;;;;;;;;;;;;;26.55;40.01;99756.72;4405703;32;33889;-70
2022/05/13 12:10:54;;;;;;;;;;;;;;;27.12;38.98;99765.88;4391237;32;34372;-69
2022/05/13 12:13:38;;;;;;;;;;;;;;;26.36;39.46;99766.69;4423243;32;34751;-69
2022/05/13 12:16:24;;;;;;;;;;;;;;;26.52;39.30;99762.66;4442544;32;32178;-70
2022/05/13 12:18:55;;;;;;;;;;;;;;;26.19;40.31;99760.00;4445930;32;33257;-69
2022/05/13 12:21:26;;;;;;;;;;;;;;;25.94;40.47;99751.63;4449420;32;34168;-70
2022/05/13 12:24:09;;;;;;;;;;;;;;;26.40;40.24;99751.47;4443371;32;32521;-69
2022/05/13 12:26:53;;;;;;;;;;;;;;;26.08;40.81;99758.75;4450322;32;34401;-72
2022/05/13 12:29:21;;;;;;;;;;;;;;;26.60;39.51;99754.16;4449618;32;35585;-69
2022/05/13 12:31:53;;;;;;;;;;;;;;;26.34;40.71;99759.75;4448645;32;34017;-70
2022/05/13 12:40:00;;;;;;;;;;;;;;;26.97;38.37;99750.75;4442548;32;34010;-70
2022/05/13 12:42:41;;;;;;;;;;;;;;;26.92;38.06;99738.56;4445843;32;33793;-70
2022/05/13 12:45:29;;;;;;;;;;;;;;;25.67;41.08;99740.69;4437834;32;33736;-72
2022/05/13 12:47:59;;;;;;;;;;;;;;;25.83;40.02;99739.41;4424965;32;34281;-68
2022/05/13 12:50:39;;;;;;;;;;;;;;;25.76;40.09;99738.56;4448986;32;33224;-70
2022/05/13 12:53:25;;;;;;;;;;;;;;;25.86;39.34;99740.91;4446370;32;34450;-69
2022/05/13 12:56:24;;;;;;;;;;;;;;;26.48;38.91;99742.19;4447742;32;34268;-70
2022/05/13 12:58:54;;;;;;;;;;;;;;;26.50;39.24;99736.47;4444258;32;33318;-70
2022/05/13 13:01:21;;;;;;;;;;;;;;;26.30;38.31;99733.81;4442521;32;35019;-71
2022/05/13 13:03:49;;;;;;;;;;;;;;;26.68;38.37;99731.12;4444550;32;33356;-70
2022/05/13 13:06:19;;;;;;;;;;;;;;;26.78;38.72;99730.62;4446749;32;34222;-70
2022/05/13 13:08:48;;;;;;;;;;;;;;;26.62;38.00;99727.34;4447965;32;33185;-69
2022/05/13 13:11:25;;;;;;;;;;;;;;;26.48;38.74;99728.44;4440907;32;33858;-71
2022/05/13 13:13:56;;;;;;;;;;;;;;;26.59;37.56;99733.28;4448860;32;35431;-69
2022/05/13 13:16:33;;;;;;;;;;;;;;;27.04;36.70;99724.97;4444935;32;33357;-70
2022/05/13 13:19:09;;;;;;;;;;;;;;;26.21;37.60;99727.72;4446872;32;32432;-69
2022/05/13 13:21:37;;;;;;;;;;;;;;;25.53;38.86;99733.53;4448024;32;36250;-71
2022/05/13 13:24:07;;;;;;;;;;;;;;;25.62;39.34;99729.53;4450080;32;35835;-70
2022/05/13 13:26:35;;;;;;;;;;;;;;;25.20;39.63;99728.91;4443844;32;34094;-68
2022/05/13 13:29:03;;;;;;;;;;;;;;;26.01;38.55;99712.16;4447994;32;32346;-71
2022/05/13 13:31:31;;;;;;;;;;;;;;;26.38;38.31;99709.69;4445808;32;33193;-71
2022/05/13 13:33:59;;;;;;;;;;;;;;;25.90;37.95;99707.34;4440688;32;34358;-69
2022/05/13 13:36:29;;;;;;;;;;;;;;;26.13;37.26;99698.63;4441078;32;34481;-69
2022/05/13 13:39:17;;;;;;;;;;;;;;;25.48;36.50;99701.28;4440382;32;32060;-71
2022/05/13 13:41:46;;;;;;;;;;;;;;;25.86;36.14;99697.88;4441525;32;34231;-69
2022/05/13 13:44:14;;;;;;;;;;;;;;;25.35;37.42;99689.50;4439776;32;33941;-71
2022/05/13 13:46:44;;;;;;;;;;;;;;;26.15;36.73;99676.47;4439959;32;32835;-69